Flight Track Log - Related Links

Times and Time Zones

All times are in EDT time to prevent confusion due to time zone crossing. See the N305DS flight status page for this flight to view local times or setup timezone preferences in your user account.

Time Position Orientation Groundspeed Altitude Reporting Facility
EDT Latitude Longitude Course Direction KTS MPH feet Rate Location/Type
Mon 01:02:37 PM 37.9647 -87.5350 175° South 165 190 4,200  Level Indianapolis Center
Mon 01:03:39 PM 37.9094 -87.5292 175° South 164 189 7,100 2,565 Climbing Indianapolis Center
Mon 01:04:41 PM 37.8617 -87.5275 178° South 168 193 9,500 2,323 Climbing Indianapolis Center
Mon 01:05:43 PM 37.8108 -87.5264 179° South 179 206 11,900 1,984 Climbing Indianapolis Center
Mon 01:06:45 PM 37.7597 -87.5275 181° South 184 212 13,600 1,065 Climbing Indianapolis Center
Mon 01:07:00 PM 38.0178 -87.5287 175° South  Level FlightAware Approximate
Mon 01:07:47 PM 37.6947 -87.5247 178° South 223 257 14,100  Level Indianapolis Center
Mon 01:08:00 PM 37.9663 -87.5235 175° South  Level FlightAware Approximate
Mon 01:08:49 PM 37.6039 -87.5167 176° South 274 315 14,100  Level Indianapolis Center
Mon 01:09:51 PM 37.5236 -87.5164 180° South 281 323 14,100  Level Indianapolis Center
Mon 01:10:53 PM 37.4431 -87.5094 176° South 283 326 14,100  Level Indianapolis Center
Mon 01:11:55 PM 37.3644 -87.5033 176° South 283 326 14,100  Level Indianapolis Center
Mon 01:13:13 PM 37.2550 -87.4997 178° South 283 326 14,100  Level Memphis Center
Mon 01:13:46 PM 37.2128 -87.4956 176° South 286 329 14,100 -677 Level Memphis Center
Mon 01:14:15 PM 37.1744 -87.4953 180° South 284 327 13,400 -1,469 Descending Memphis Center
Mon 01:14:35 PM 37.1481 -87.4917 174° South 288 331 12,900 -1,065 Descending Memphis Center
Mon 01:15:17 PM 37.0947 -87.4897 178° South 285 328 12,300 -1,100 Descending Memphis Center
Mon 01:15:35 PM 37.0669 -87.4872 176° South 278 320 11,800 -968 Descending Memphis Center
Mon 01:16:19 PM 37.0197 -87.4819 175° South 275 316 11,300 -689 Descending Memphis Center
Mon 01:16:36 PM 36.9981 -87.4806 177° South 260 299 11,100 -1,161 Descending Memphis Center
Mon 01:17:21 PM 36.9478 -87.4736 174° South 261 300 10,100 -1,279 Descending Memphis Center
Mon 01:17:37 PM 36.9211 -87.4711 176° South 259 298 9,800 -774 Descending Memphis Center
Mon 01:18:23 PM 36.8736 -87.4656 175° South 262 302 9,300 -800 Descending Memphis Center
Mon 01:18:37 PM 36.8522 -87.4617 172° South 258 297 9,000 -871 Descending Memphis Center
Mon 01:19:25 PM 36.8028 -87.4578 176° South 259 298 8,400 -984 Descending Memphis Center
Mon 01:19:38 PM 36.7794 -87.4550 175° South 254 292 8,000 -581 Descending Memphis Center
Mon 01:20:27 PM 36.7314 -87.4517 177° South 256 295 7,800 -300 Descending Memphis Center
Mon 01:20:38 PM 36.7128 -87.4511 179° South 242 278 7,700 -583 Descending Memphis Center
Mon 01:21:39 PM 36.6417 -87.4547 182° South 236 272 7,100 -584 Descending Memphis Center
Mon 01:22:31 PM 36.5883 -87.4553 180° South 238 274 6,600 -632 Descending Memphis Center
Mon 01:23:33 PM 36.5208 -87.4483 175° South 237 273 5,900 -919 Descending Memphis Center
Mon 01:24:35 PM 36.4522 -87.4506 181° South 239 275 4,700 -1,113 Descending Memphis Center
Mon 01:25:37 PM 36.3856 -87.4578 185° South 243 280 3,600 -823 Descending Memphis Center
Mon 01:26:39 PM 36.3278 -87.4644 185° South 225 259 3,000 -290 Descending Memphis Center
Mon 01:27:41 PM 36.2831 -87.4578 173° South 183 211 3,000  Level Memphis Center

Login

Don't have an account? Register now (free) for customized features, flight alerts, and more!